Time;durP1;ratioP1;P1;durP2;ratioP2;P2;SDS_P1;SDS_P2;PMS_P1;PMS_P2;Temp;Humidity;BMP_temperature;BMP_pressure;BME280_temperature;BME280_humidity;BME280_pressure;Samples;Min_cycle;Max_cycle;Signal;HPM_P1;HPM_P2
2021/05/31 00:01:28;;;;;;;2.60;2.40;;;12.90;54.80;;;;;;4872844;29;20801;-80
2021/05/31 00:03:55;;;;;;;2.47;2.23;;;12.80;55.10;;;;;;4875276;29;20492;-80
2021/05/31 00:06:21;;;;;;;3.10;2.60;;;12.80;55.00;;;;;;4874657;29;20932;-80
2021/05/31 00:08:48;;;;;;;2.83;2.63;;;12.70;54.70;;;;;;4873854;29;20460;-81
2021/05/31 00:11:18;;;;;;;4.20;2.77;;;12.70;55.00;;;;;;4874794;29;21006;-80
2021/05/31 00:13:44;;;;;;;2.33;2.13;;;12.60;55.00;;;;;;4874549;29;20456;-80
2021/05/31 00:16:11;;;;;;;3.33;3.13;;;12.60;55.00;;;;;;4874011;29;20839;-81
2021/05/31 00:18:37;;;;;;;2.23;2.03;;;12.60;55.10;;;;;;4877262;29;20506;-79
2021/05/31 00:21:03;;;;;;;3.00;1.83;;;12.60;55.30;;;;;;4875195;29;20468;-80
2021/05/31 00:23:32;;;;;;;3.33;2.20;;;12.60;55.40;;;;;;4875932;29;20489;-79
2021/05/31 00:25:58;;;;;;;2.63;2.43;;;12.50;55.70;;;;;;4868654;29;20460;-80
2021/05/31 00:28:25;;;;;;;2.00;1.90;;;12.50;56.00;;;;;;4875224;29;20452;-80
2021/05/31 00:30:52;;;;;;;3.23;2.37;;;12.50;56.40;;;;;;4875271;29;20541;-80
2021/05/31 00:33:18;;;;;;;2.93;2.47;;;12.50;56.70;;;;;;4875974;29;20441;-80
2021/05/31 00:35:44;;;;;;;2.50;2.30;;;12.50;57.20;;;;;;4876884;29;20461;-80
2021/05/31 00:38:10;;;;;;;5.00;2.20;;;12.40;57.00;;;;;;4876851;29;20513;-80
2021/05/31 00:40:37;;;;;;;2.70;2.50;;;12.40;57.10;;;;;;4850844;29;20481;-81
2021/05/31 00:43:03;;;;;;;2.27;2.07;;;12.30;57.20;;;;;;4850642;29;20496;-81
2021/05/31 00:45:30;;;;;;;3.10;2.90;;;12.30;57.30;;;;;;4850208;29;20457;-80
2021/05/31 00:47:57;;;;;;;2.53;2.23;;;12.30;57.30;;;;;;4850707;29;20461;-80
2021/05/31 00:50:23;;;;;;;3.93;2.40;;;12.20;57.50;;;;;;4851242;29;20482;-80
2021/05/31 00:52:49;;;;;;;2.13;1.93;;;12.20;57.70;;;;;;4850727;29;20461;-80
2021/05/31 00:55:16;;;;;;;2.57;2.47;;;12.10;58.00;;;;;;4850310;29;20466;-80
2021/05/31 00:57:42;;;;;;;2.20;2.10;;;12.10;58.10;;;;;;4850403;29;20462;-80
2021/05/31 01:00:09;;;;;;;5.17;2.80;;;12.00;58.40;;;;;;4850658;29;20484;-80
2021/05/31 01:02:37;;;;;;;2.70;2.50;;;12.00;58.80;;;;;;4850300;29;20461;-80
2021/05/31 01:05:06;;;;;;;3.00;2.70;;;11.90;59.30;;;;;;4850327;29;20457;-80
2021/05/31 01:07:39;;;;;;;2.10;1.90;;;11.90;59.50;;;;;;4850687;29;20450;-80
2021/05/31 01:10:13;;;;;;;3.07;2.33;;;11.80;59.60;;;;;;4850445;29;20508;-81
2021/05/31 01:12:46;;;;;;;2.10;2.00;;;11.70;59.50;;;;;;4850164;29;20475;-81
2021/05/31 01:15:16;;;;;;;4.07;2.67;;;11.70;59.80;;;;;;4850456;29;20461;-80
2021/05/31 01:17:52;;;;;;;2.37;2.23;;;11.60;60.30;;;;;;4851525;29;20494;-83
2021/05/31 01:20:35;;;;;;;2.83;2.20;;;11.60;60.90;;;;;;4852916;29;20557;-83
2021/05/31 01:23:07;;;;;;;3.40;2.70;;;11.60;61.90;;;;;;4852179;29;20472;-80
2021/05/31 01:25:41;;;;;;;2.57;2.37;;;11.50;62.10;;;;;;4851226;29;20465;-82
2021/05/31 01:28:28;;;;;;;4.77;2.93;;;11.40;62.30;;;;;;4851474;29;20468;-80
2021/05/31 01:30:57;;;;;;;2.57;2.37;;;11.30;63.10;;;;;;4845113;29;20480;-82
2021/05/31 01:33:30;;;;;;;3.20;2.73;;;11.20;63.60;;;;;;4852211;29;20494;-81
2021/05/31 01:35:58;;;;;;;5.20;2.70;;;11.20;64.40;;;;;;4851859;29;20455;-82
2021/05/31 01:38:26;;;;;;;5.53;2.90;;;11.10;64.90;;;;;;4852225;29;20468;-82
2021/05/31 01:40:54;;;;;;;2.93;2.50;;;11.10;65.30;;;;;;4851578;29;20540;-82
2021/05/31 01:43:21;;;;;;;4.57;3.80;;;11.00;65.80;;;;;;4850439;29;20464;-82
2021/05/31 01:45:48;;;;;;;3.50;3.00;;;11.00;66.20;;;;;;4851095;29;20461;-82
2021/05/31 01:48:16;;;;;;;8.40;3.40;;;10.90;66.50;;;;;;4851266;29;20462;-80
2021/05/31 01:50:42;;;;;;;2.50;2.30;;;10.90;66.90;;;;;;4851119;29;20482;-82
2021/05/31 01:53:09;;;;;;;3.73;3.10;;;10.80;67.40;;;;;;4850788;29;20501;-82
2021/05/31 01:55:36;;;;;;;2.43;2.33;;;10.80;68.00;;;;;;4851561;29;20468;-82
2021/05/31 01:58:03;;;;;;;2.20;2.03;;;10.80;68.30;;;;;;4851389;29;20468;-82
2021/05/31 02:00:33;;;;;;;2.87;2.67;;;10.80;69.00;;;;;;4851730;29;20485;-83
2021/05/31 02:03:01;;;;;;;2.30;2.10;;;10.80;69.40;;;;;;4852030;29;20469;-83
2021/05/31 02:05:29;;;;;;;4.93;2.17;;;10.70;69.40;;;;;;4852250;29;20521;-80
2021/05/31 02:07:55;;;;;;;2.43;2.27;;;10.60;69.40;;;;;;4851169;29;20840;-82
2021/05/31 02:10:22;;;;;;;3.03;2.80;;;10.60;69.80;;;;;;4851697;29;20465;-82
2021/05/31 02:12:52;;;;;;;2.80;2.60;;;10.60;70.20;;;;;;4852051;29;20475;-79
2021/05/31 02:15:23;;;;;;;3.10;2.73;;;10.50;70.40;;;;;;4852892;29;20944;-80
2021/05/31 02:17:57;;;;;;;2.40;2.20;;;10.50;70.30;;;;;;4853069;29;20847;-82
2021/05/31 02:20:26;;;;;;;4.07;2.33;;;10.50;70.60;;;;;;4852321;29;20488;-82
2021/05/31 02:22:58;;;;;;;3.47;2.83;;;10.50;70.90;;;;;;4851217;29;20490;-81
2021/05/31 02:25:26;;;;;;;3.00;2.70;;;10.50;71.30;;;;;;4851784;29;20956;-80
2021/05/31 02:27:53;;;;;;;2.63;2.43;;;10.50;71.80;;;;;;4851383;29;20968;-80
2021/05/31 02:30:23;;;;;;;2.87;2.67;;;10.50;72.30;;;;;;4851192;29;21027;-81
2021/05/31 02:32:51;;;;;;;3.20;3.00;;;10.40;73.20;;;;;;4852041;29;20460;-82
2021/05/31 02:35:17;;;;;;;3.10;2.90;;;10.40;73.60;;;;;;4852391;29;20472;-82
2021/05/31 02:37:44;;;;;;;4.80;3.20;;;10.30;74.30;;;;;;4851515;29;20467;-82
2021/05/31 02:40:13;;;;;;;2.70;2.50;;;10.20;74.80;;;;;;4850751;29;20495;-82
2021/05/31 02:42:39;;;;;;;4.60;2.80;;;10.10;75.50;;;;;;4850847;29;20992;-79
2021/05/31 02:45:06;;;;;;;3.00;2.80;;;10.10;76.10;;;;;;4850967;29;20461;-82
2021/05/31 02:47:33;;;;;;;2.70;2.47;;;10.10;76.20;;;;;;4850321;29;20457;-79
2021/05/31 02:49:59;;;;;;;3.30;3.10;;;10.00;76.20;;;;;;4851139;29;21038;-81
2021/05/31 02:52:25;;;;;;;3.47;2.07;;;10.00;76.40;;;;;;4850850;29;20470;-82
2021/05/31 02:54:52;;;;;;;4.37;3.17;;;10.00;76.60;;;;;;4851148;29;20499;-81
2021/05/31 02:57:19;;;;;;;2.30;2.10;;;9.90;77.90;;;;;;4851068;29;20465;-82
2021/05/31 02:59:46;;;;;;;2.70;2.53;;;9.90;77.90;;;;;;4851078;29;20485;-81
2021/05/31 03:02:12;;;;;;;3.10;2.90;;;9.90;77.80;;;;;;4850784;29;20520;-81
2021/05/31 03:04:38;;;;;;;2.70;2.50;;;9.90;78.20;;;;;;4850618;29;20480;-82
2021/05/31 03:07:05;;;;;;;3.30;2.93;;;9.90;78.50;;;;;;4851255;29;20447;-81
2021/05/31 03:09:31;;;;;;;3.43;3.20;;;9.90;79.20;;;;;;4851020;29;20488;-79
2021/05/31 03:11:59;;;;;;;3.40;3.17;;;9.90;79.50;;;;;;4850453;29;20461;-79
2021/05/31 03:14:27;;;;;;;3.20;2.57;;;9.90;80.20;;;;;;4851094;29;20503;-79
2021/05/31 03:16:53;;;;;;;3.80;2.70;;;9.90;80.40;;;;;;4850711;29;20473;-79
2021/05/31 03:19:19;;;;;;;2.40;2.23;;;9.80;80.30;;;;;;4850771;29;20490;-81
2021/05/31 03:21:46;;;;;;;3.20;2.30;;;9.80;81.40;;;;;;4849770;29;20456;-80
2021/05/31 03:24:12;;;;;;;3.60;3.00;;;9.80;80.80;;;;;;4850094;29;20453;-82
2021/05/31 03:26:38;;;;;;;3.53;2.53;;;9.80;81.00;;;;;;4850517;29;20476;-81
2021/05/31 03:29:04;;;;;;;2.50;2.30;;;9.80;81.60;;;;;;4849515;29;20448;-82
2021/05/31 03:31:32;;;;;;;2.67;2.50;;;9.80;82.10;;;;;;4849581;29;20481;-82
2021/05/31 03:33:58;;;;;;;2.50;2.30;;;9.80;82.60;;;;;;4852905;29;20498;-78
2021/05/31 03:36:24;;;;;;;3.33;3.07;;;9.70;83.00;;;;;;4862494;29;20435;-76
2021/05/31 03:38:51;;;;;;;3.30;2.87;;;9.70;83.50;;;;;;4862467;29;20463;-78
2021/05/31 03:41:17;;;;;;;4.75;2.97;;;9.70;83.90;;;;;;4862099;29;20503;-82
2021/05/31 03:43:43;;;;;;;3.23;2.93;;;9.60;84.30;;;;;;4850265;29;20218;-82
2021/05/31 03:46:09;;;;;;;3.70;3.05;;;9.60;84.80;;;;;;4850246;29;20464;-79
2021/05/31 03:48:37;;;;;;;3.03;2.73;;;9.60;85.10;;;;;;4849806;29;20207;-82
2021/05/31 03:51:11;;;;;;;3.43;3.13;;;9.60;85.50;;;;;;4849910;29;20536;-82
2021/05/31 03:53:37;;;;;;;3.77;3.07;;;9.60;86.10;;;;;;4850463;29;21023;-82
2021/05/31 03:56:04;;;;;;;3.63;3.33;;;9.60;86.40;;;;;;4850825;29;20460;-82
2021/05/31 03:58:31;;;;;;;2.93;2.73;;;9.60;87.10;;;;;;4850486;29;20473;-81
2021/05/31 04:00:58;;;;;;;3.27;2.97;;;9.60;87.60;;;;;;4849593;29;20558;-82
2021/05/31 04:03:25;;;;;;;2.53;2.33;;;9.60;87.60;;;;;;4850030;29;20466;-79
2021/05/31 04:05:59;;;;;;;4.63;3.23;;;9.70;87.70;;;;;;4850338;29;20459;-82
2021/05/31 04:13:56;;;;;;;3.13;2.93;;;9.60;88.90;;;;;;4853221;29;20510;-80
2021/05/31 04:16:23;;;;;;;3.47;3.17;;;9.70;88.50;;;;;;4853315;29;20461;-81
2021/05/31 04:18:49;;;;;;;4.10;3.20;;;9.70;88.90;;;;;;4853117;29;20453;-81
2021/05/31 04:21:17;;;;;;;3.50;3.30;;;9.70;89.40;;;;;;4853212;29;20518;-82
2021/05/31 04:23:43;;;;;;;3.00;2.80;;;9.70;89.90;;;;;;4853126;29;20231;-81
2021/05/31 04:26:09;;;;;;;3.30;3.00;;;9.70;90.00;;;;;;4852877;29;20460;-82
2021/05/31 04:28:35;;;;;;;3.57;3.27;;;9.70;90.20;;;;;;4853107;29;20469;-81
2021/05/31 04:31:01;;;;;;;3.33;3.13;;;9.80;90.30;;;;;;4854487;29;20505;-82
2021/05/31 04:33:28;;;;;;;4.13;3.27;;;9.90;90.40;;;;;;4852818;29;20499;-82
2021/05/31 04:35:54;;;;;;;3.40;3.03;;;9.90;90.40;;;;;;4853190;29;20472;-82
2021/05/31 04:38:21;;;;;;;3.90;3.60;;;10.00;90.00;;;;;;4852567;29;20551;-82
2021/05/31 04:40:48;;;;;;;3.45;2.70;;;10.00;89.90;;;;;;4852853;29;21033;-82
2021/05/31 04:43:14;;;;;;;4.47;3.23;;;10.10;90.00;;;;;;4853305;29;20636;-82
2021/05/31 04:45:40;;;;;;;3.40;3.10;;;10.10;90.10;;;;;;4853382;29;20467;-82
2021/05/31 04:48:07;;;;;;;4.10;3.20;;;10.10;90.10;;;;;;4852667;29;20464;-82
2021/05/31 04:50:33;;;;;;;4.27;3.87;;;10.20;90.20;;;;;;4852902;29;20807;-82
2021/05/31 04:53:00;;;;;;;3.70;2.93;;;10.30;90.30;;;;;;4852288;29;20465;-82
2021/05/31 04:55:27;;;;;;;3.90;3.50;;;10.30;90.40;;;;;;4852167;29;20507;-82
2021/05/31 04:57:56;;;;;;;3.60;3.27;;;10.30;90.30;;;;;;4852447;29;20457;-82
2021/05/31 05:00:25;;;;;;;4.80;4.00;;;10.40;90.30;;;;;;4854273;29;20473;-82
2021/05/31 05:02:52;;;;;;;4.67;3.53;;;10.40;90.40;;;;;;4856824;29;20479;-81
2021/05/31 05:05:19;;;;;;;3.40;2.80;;;10.50;90.50;;;;;;4856014;29;20465;-82
2021/05/31 05:07:46;;;;;;;3.60;3.30;;;10.60;90.40;;;;;;4856171;29;20464;-81
2021/05/31 05:10:14;;;;;;;5.80;5.03;;;10.70;90.50;;;;;;4855671;29;20484;-80
2021/05/31 05:12:45;;;;;;;4.13;3.80;;;10.70;90.20;;;;;;4854693;29;20453;-82
2021/05/31 05:15:14;;;;;;;4.33;4.00;;;10.80;90.30;;;;;;4856111;29;20512;-82
2021/05/31 05:17:43;;;;;;;4.97;4.43;;;10.90;90.20;;;;;;4855824;29;20461;-82
2021/05/31 05:20:11;;;;;;;4.73;4.17;;;11.00;90.30;;;;;;4857019;29;20504;-79
2021/05/31 05:22:37;;;;;;;3.73;3.53;;;11.10;90.30;;;;;;4855021;29;20461;-82
2021/05/31 05:25:05;;;;;;;4.50;4.10;;;11.20;90.30;;;;;;4856117;29;20464;-79
2021/05/31 05:27:31;;;;;;;3.70;3.40;;;11.20;90.40;;;;;;4855544;29;20469;-82
2021/05/31 05:30:01;;;;;;;10.93;4.07;;;11.30;90.20;;;;;;4854120;29;21116;-82
2021/05/31 05:32:29;;;;;;;3.57;3.17;;;11.40;89.90;;;;;;4850660;29;20528;-82
2021/05/31 05:35:04;;;;;;;3.90;3.40;;;11.50;89.80;;;;;;4850290;29;20518;-82
2021/05/31 05:37:32;;;;;;;4.70;3.97;;;11.60;89.60;;;;;;4849963;29;20464;-82
2021/05/31 05:40:16;;;;;;;3.90;3.60;;;11.70;89.70;;;;;;4849909;29;20993;-82
2021/05/31 05:43:15;;;;;;;4.10;3.70;;;11.80;89.20;;;;;;4849929;29;20462;-82
2021/05/31 05:45:58;;;;;;;4.97;4.67;;;11.90;90.00;;;;;;4850429;29;20465;-82
2021/05/31 05:48:28;;;;;;;3.37;3.07;;;12.00;88.90;;;;;;4850683;29;20474;-82
2021/05/31 06:01:22;;;;;;;;;;;;;;;;;;;;;
2021/05/31 06:22:55;;;;;;;5.13;4.50;;;13.10;86.90;;;;;;4615184;30;20475;-81
2021/05/31 06:25:22;;;;;;;3.33;3.13;;;13.20;86.50;;;;;;4796525;29;20591;-80
2021/05/31 06:28:04;;;;;;;;;;;;;;;;;;;;;
2021/05/31 06:59:13;;;;;;;3.27;3.07;;;14.30;77.80;;;;;;4765655;30;20458;-82
2021/05/31 07:01:43;;;;;;;3.13;2.93;;;14.40;78.40;;;;;;4780372;29;20491;-82
2021/05/31 07:04:12;;;;;;;3.30;3.00;;;14.50;76.90;;;;;;4845019;29;20444;-83
2021/05/31 07:06:39;;;;;;;3.70;3.27;;;14.60;77.00;;;;;;4843454;29;20546;-82
2021/05/31 07:09:24;;;;;;;5.63;2.80;;;14.70;75.40;;;;;;4860418;29;20463;-82
2021/05/31 07:14:41;;;;;;;7.23;3.20;;;14.90;75.70;;;;;;4860924;29;21224;-83
2021/05/31 07:19:58;;;;;;;3.30;3.03;;;15.10;74.80;;;;;;4863356;29;20485;-82
2021/05/31 07:22:29;;;;;;;3.67;3.37;;;15.20;73.40;;;;;;4863565;29;20473;-81
2021/05/31 07:25:03;;;;;;;4.17;3.80;;;15.30;73.90;;;;;;4864513;29;20481;-81
2021/05/31 07:27:29;;;;;;;4.37;3.17;;;15.40;73.00;;;;;;4864235;29;20459;-81
2021/05/31 07:29:57;;;;;;;3.77;3.30;;;15.50;73.40;;;;;;4863352;29;20488;-83
2021/05/31 07:32:23;;;;;;;2.80;2.60;;;15.40;71.60;;;;;;4865359;29;20459;-85
2021/05/31 07:34:50;;;;;;;3.60;3.30;;;15.40;70.80;;;;;;4867852;29;20501;-82
2021/05/31 07:37:16;;;;;;;3.33;3.00;;;15.60;71.90;;;;;;4867496;29;20462;-81
2021/05/31 07:39:43;;;;;;;3.83;3.13;;;15.70;72.00;;;;;;4863627;29;20996;-81
2021/05/31 07:42:09;;;;;;;2.77;2.67;;;15.70;70.20;;;;;;4863982;29;20455;-80
2021/05/31 07:44:36;;;;;;;2.73;2.30;;;15.70;68.40;;;;;;4864104;29;20457;-81
2021/05/31 07:47:04;;;;;;;2.60;2.43;;;15.70;67.00;;;;;;4863804;29;20465;-80
2021/05/31 07:49:30;;;;;;;2.63;2.10;;;15.70;65.30;;;;;;4867094;29;20477;-81
2021/05/31 07:52:06;;;;;;;3.50;3.20;;;15.70;65.10;;;;;;4864522;29;20960;-82
2021/05/31 07:54:32;;;;;;;2.60;2.47;;;15.70;65.30;;;;;;4863567;29;20477;-81
2021/05/31 07:57:00;;;;;;;2.33;2.20;;;15.90;66.20;;;;;;4863580;29;20851;-81
2021/05/31 07:59:26;;;;;;;2.47;2.27;;;16.00;64.40;;;;;;4862882;29;20525;-82
2021/05/31 08:01:52;;;;;;;2.60;2.50;;;16.10;65.60;;;;;;4862538;29;20457;-82
2021/05/31 08:04:20;;;;;;;2.60;2.37;;;16.20;65.30;;;;;;4861872;29;20455;-81
2021/05/31 08:06:46;;;;;;;6.73;2.27;;;16.20;63.80;;;;;;4866655;29;20458;-82
2021/05/31 08:09:12;;;;;;;3.30;2.13;;;16.40;64.20;;;;;;4863103;29;20467;-83
2021/05/31 08:11:38;;;;;;;3.33;3.03;;;16.40;63.60;;;;;;4867917;29;20619;-82
2021/05/31 08:14:05;;;;;;;2.23;2.10;;;16.50;60.90;;;;;;4862902;29;21182;-83
2021/05/31 08:16:31;;;;;;;2.60;2.37;;;16.60;59.80;;;;;;4866371;29;20471;-81
2021/05/31 08:19:19;;;;;;;3.07;2.27;;;16.60;58.70;;;;;;4864707;29;20465;-84
2021/05/31 08:22:10;;;;;;;2.73;2.53;;;16.70;59.20;;;;;;4861601;29;20891;-85
2021/05/31 08:38:39;;;;;;;;;;;;;;;;;;;;;
2021/05/31 08:57:39;;;;;;;3.03;2.83;;;17.30;57.80;;;;;;4617669;30;20463;-83
2021/05/31 09:00:10;;;;;;;2.93;2.73;;;17.40;58.80;;;;;;4740269;29;20495;-83
2021/05/31 09:02:37;;;;;;;3.70;3.40;;;17.50;57.50;;;;;;4877774;29;20474;-83
2021/05/31 09:05:04;;;;;;;3.30;3.10;;;17.40;56.20;;;;;;4884529;29;20494;-82
2021/05/31 09:07:31;;;;;;;3.07;2.47;;;17.20;55.50;;;;;;4883213;29;20464;-81
2021/05/31 09:09:57;;;;;;;2.83;2.63;;;17.30;57.00;;;;;;4879649;29;20472;-82
2021/05/31 09:12:31;;;;;;;3.00;2.80;;;17.30;56.80;;;;;;4868153;29;20551;-82
2021/05/31 09:15:00;;;;;;;3.23;3.03;;;17.30;57.40;;;;;;4867838;29;20560;-82
2021/05/31 09:17:28;;;;;;;2.80;2.63;;;17.40;57.90;;;;;;4868043;29;20845;-83
2021/05/31 09:20:19;;;;;;;3.57;3.37;;;17.50;57.90;;;;;;4867060;29;20492;-85
2021/05/31 09:22:46;;;;;;;2.80;2.57;;;17.60;59.90;;;;;;4864305;29;20463;-83
2021/05/31 09:25:24;;;;;;;2.80;2.60;;;17.70;58.10;;;;;;4863248;29;20460;-82
2021/05/31 09:27:52;;;;;;;2.97;2.47;;;17.90;59.00;;;;;;4863320;29;20535;-82
2021/05/31 09:30:18;;;;;;;2.77;2.53;;;17.90;55.30;;;;;;4862872;29;20498;-83
2021/05/31 09:32:51;;;;;;;3.67;2.43;;;17.90;55.50;;;;;;4863024;29;20466;-84
2021/05/31 09:35:21;;;;;;;2.60;2.50;;;17.90;56.20;;;;;;4863070;29;20537;-82
2021/05/31 09:37:48;;;;;;;3.43;2.87;;;18.00;55.80;;;;;;4862935;29;20502;-81
2021/05/31 09:40:18;;;;;;;3.10;2.87;;;18.00;55.60;;;;;;4865633;29;20476;-84
2021/05/31 09:42:48;;;;;;;2.67;2.47;;;18.00;55.60;;;;;;4864849;29;20467;-83
2021/05/31 09:45:17;;;;;;;3.33;2.60;;;18.10;56.90;;;;;;4865126;29;20446;-83
2021/05/31 09:47:44;;;;;;;2.20;2.10;;;18.20;57.60;;;;;;4864085;29;20456;-83
2021/05/31 09:50:11;;;;;;;2.90;2.70;;;18.30;55.30;;;;;;4864420;29;20484;-84
2021/05/31 09:52:38;;;;;;;2.93;2.60;;;18.40;55.70;;;;;;4863661;29;20812;-85
2021/05/31 09:55:09;;;;;;;3.00;2.60;;;18.40;56.20;;;;;;4867082;29;20488;-85
2021/05/31 09:57:46;;;;;;;5.27;3.10;;;18.50;54.70;;;;;;4866082;29;20461;-83
2021/05/31 10:00:53;;;;;;;2.40;2.30;;;18.40;53.90;;;;;;4863450;29;20488;-85
2021/05/31 10:03:29;;;;;;;2.40;2.20;;;18.50;54.20;;;;;;4770918;30;20515;-85
2021/05/31 10:06:03;;;;;;;2.43;2.30;;;18.40;51.80;;;;;;4775929;30;20483;-84
2021/05/31 10:11:45;;;;;;;2.90;2.70;;;18.60;53.30;;;;;;4822391;29;21036;-81
2021/05/31 10:14:15;;;;;;;2.77;2.57;;;18.50;53.30;;;;;;4865740;29;21107;-85
2021/05/31 10:16:42;;;;;;;3.27;2.93;;;18.70;54.30;;;;;;4865199;29;20493;-82
2021/05/31 10:19:09;;;;;;;3.30;3.00;;;18.60;52.00;;;;;;4866295;29;20460;-83
2021/05/31 10:21:36;;;;;;;3.37;3.17;;;18.80;53.80;;;;;;4866501;29;20513;-83
2021/05/31 10:24:03;;;;;;;2.70;2.50;;;19.00;55.00;;;;;;4866526;29;20464;-86
2021/05/31 10:26:32;;;;;;;2.80;2.60;;;19.00;53.10;;;;;;4866613;29;20475;-84
2021/05/31 10:28:59;;;;;;;2.60;2.50;;;19.20;53.90;;;;;;4865919;29;20465;-84
2021/05/31 10:31:27;;;;;;;3.10;2.80;;;19.40;53.50;;;;;;4865658;29;20924;-82
2021/05/31 10:33:58;;;;;;;2.93;2.73;;;19.60;53.60;;;;;;4866092;29;20461;-84
2021/05/31 10:36:31;;;;;;;2.97;2.77;;;19.80;52.50;;;;;;4866048;29;20469;-84
2021/05/31 10:39:01;;;;;;;2.80;2.70;;;19.80;52.80;;;;;;4865961;29;20455;-82
2021/05/31 10:41:32;;;;;;;5.83;2.80;;;20.10;54.60;;;;;;4865727;29;20462;-85
2021/05/31 10:43:59;;;;;;;2.90;2.60;;;20.30;54.30;;;;;;4865362;29;20897;-83
2021/05/31 10:46:28;;;;;;;2.60;2.40;;;20.40;50.20;;;;;;4865780;29;20464;-84
2021/05/31 10:48:55;;;;;;;3.00;2.80;;;20.60;50.70;;;;;;4865992;29;20488;-84
2021/05/31 10:51:25;;;;;;;3.20;3.00;;;20.70;50.70;;;;;;4865722;29;20748;-84
2021/05/31 10:53:53;;;;;;;3.50;3.30;;;20.60;49.10;;;;;;4865112;29;20810;-84
2021/05/31 10:56:25;;;;;;;3.37;3.17;;;20.40;50.00;;;;;;4865791;29;20463;-84
2021/05/31 10:58:53;;;;;;;4.53;3.00;;;20.60;51.20;;;;;;4865289;29;21028;-84
2021/05/31 11:01:21;;;;;;;3.50;3.20;;;20.70;50.10;;;;;;4865184;29;21001;-83
2021/05/31 11:03:50;;;;;;;3.03;2.80;;;20.90;52.10;;;;;;4865805;29;21026;-84
2021/05/31 11:06:19;;;;;;;2.70;2.50;;;21.30;51.70;;;;;;4865990;29;20464;-84
2021/05/31 11:08:50;;;;;;;2.40;2.30;;;21.70;51.30;;;;;;4865982;29;20471;-85
2021/05/31 11:11:32;;;;;;;5.37;2.97;;;22.20;48.10;;;;;;4865579;29;20491;-83
2021/05/31 11:14:00;;;;;;;4.47;2.90;;;22.70;49.70;;;;;;4864944;29;20516;-84
2021/05/31 11:16:27;;;;;;;3.23;2.90;;;23.30;48.20;;;;;;4865485;29;20481;-82
2021/05/31 11:18:57;;;;;;;3.37;3.10;;;23.90;47.00;;;;;;4865092;29;20458;-84
2021/05/31 11:21:30;;;;;;;2.90;2.70;;;24.60;47.90;;;;;;4865075;29;20476;-84
2021/05/31 11:24:03;;;;;;;4.30;2.60;;;25.10;44.10;;;;;;4867149;29;20459;-80
2021/05/31 11:26:34;;;;;;;3.13;2.83;;;25.40;41.50;;;;;;4873883;29;20524;-82
2021/05/31 11:29:02;;;;;;;2.80;2.50;;;25.60;40.80;;;;;;4865430;29;20535;-81
2021/05/31 11:31:29;;;;;;;2.97;2.77;;;26.00;40.80;;;;;;4866048;29;20823;-83
2021/05/31 11:33:57;;;;;;;2.37;2.17;;;26.30;39.80;;;;;;4865760;29;20454;-82
2021/05/31 11:36:31;;;;;;;2.40;2.30;;;26.40;38.80;;;;;;4865719;29;20506;-80
2021/05/31 11:38:57;;;;;;;2.90;2.70;;;26.70;38.70;;;;;;4865018;29;20812;-82
2021/05/31 11:41:35;;;;;;;2.73;2.53;;;27.10;40.70;;;;;;4865289;29;20482;-82
2021/05/31 11:44:01;;;;;;;2.73;2.53;;;27.60;39.70;;;;;;4865742;29;20832;-81
2021/05/31 11:46:28;;;;;;;3.70;3.40;;;28.20;38.60;;;;;;4865241;29;20463;-82
2021/05/31 11:48:54;;;;;;;2.90;2.70;;;28.20;35.80;;;;;;4865504;29;20464;-82
2021/05/31 11:51:20;;;;;;;2.40;2.30;;;28.50;37.70;;;;;;4865571;29;20491;-81
2021/05/31 11:53:48;;;;;;;3.07;2.87;;;28.80;34.40;;;;;;4864813;29;20457;-82
2021/05/31 11:56:14;;;;;;;2.80;2.60;;;28.90;34.40;;;;;;4865189;29;20587;-82
2021/05/31 11:58:42;;;;;;;3.53;2.60;;;29.20;34.90;;;;;;4865354;29;20468;-82
2021/05/31 12:01:10;;;;;;;3.67;2.60;;;29.40;33.40;;;;;;4865625;29;20477;-82
2021/05/31 12:03:38;;;;;;;2.70;2.50;;;29.50;32.70;;;;;;4865759;29;20532;-82
2021/05/31 12:06:11;;;;;;;2.80;2.40;;;29.60;33.10;;;;;;4865332;29;20458;-82
2021/05/31 12:08:37;;;;;;;2.37;2.27;;;29.60;32.20;;;;;;4865356;29;20504;-83
2021/05/31 12:11:04;;;;;;;2.80;2.60;;;29.70;32.60;;;;;;4865917;29;20477;-84
2021/05/31 12:13:32;;;;;;;2.80;2.50;;;30.00;33.00;;;;;;4865394;29;20851;-83
2021/05/31 12:16:11;;;;;;;2.20;2.00;;;30.60;33.00;;;;;;4865231;29;21089;-85
2021/05/31 12:18:37;;;;;;;2.10;2.00;;;31.00;33.50;;;;;;4865128;29;20512;-82
2021/05/31 12:21:03;;;;;;;2.23;2.13;;;31.60;32.00;;;;;;4865530;29;20472;-82
2021/05/31 12:23:30;;;;;;;2.73;2.53;;;32.20;31.50;;;;;;4865198;29;20497;-81
2021/05/31 12:26:01;;;;;;;2.47;2.27;;;32.70;30.80;;;;;;4865035;29;20450;-82
2021/05/31 12:28:32;;;;;;;2.93;2.70;;;33.00;30.20;;;;;;4867329;29;20481;-82
2021/05/31 12:31:02;;;;;;;2.70;2.50;;;33.50;28.60;;;;;;4869039;29;20482;-82
2021/05/31 12:33:28;;;;;;;3.00;2.80;;;33.70;28.80;;;;;;4868524;29;20455;-82
2021/05/31 12:35:55;;;;;;;2.77;2.60;;;34.10;29.70;;;;;;4869101;29;20499;-83
2021/05/31 12:38:22;;;;;;;3.20;2.83;;;34.50;29.00;;;;;;4868737;29;20449;-84
2021/05/31 12:40:49;;;;;;;2.40;2.30;;;34.50;26.90;;;;;;4868194;29;20476;-85
2021/05/31 12:43:17;;;;;;;2.60;2.27;;;34.40;26.30;;;;;;4868602;29;20466;-84
2021/05/31 12:45:49;;;;;;;2.10;1.90;;;34.30;27.20;;;;;;4868639;29;20568;-82
2021/05/31 12:48:18;;;;;;;2.50;2.30;;;33.90;26.80;;;;;;4868706;29;20445;-82
2021/05/31 12:50:45;;;;;;;3.27;2.87;;;33.30;26.20;;;;;;4869056;29;20487;-82
2021/05/31 12:53:12;;;;;;;3.10;2.90;;;32.50;26.70;;;;;;4868684;29;20864;-84
2021/05/31 12:55:40;;;;;;;2.90;2.70;;;32.60;28.90;;;;;;4869191;29;20488;-84
2021/05/31 12:58:11;;;;;;;2.23;2.13;;;32.90;29.10;;;;;;4870394;29;20485;-82
2021/05/31 13:00:38;;;;;;;2.90;2.40;;;33.50;27.70;;;;;;4871992;29;20484;-84
2021/05/31 13:03:05;;;;;;;2.30;2.20;;;34.00;28.00;;;;;;4874037;29;20464;-84
2021/05/31 13:05:34;;;;;;;2.60;2.47;;;34.60;28.80;;;;;;4869404;29;20912;-84
2021/05/31 13:08:03;;;;;;;2.40;2.30;;;34.50;27.00;;;;;;4869049;29;20464;-82
2021/05/31 13:10:31;;;;;;;2.33;2.13;;;34.40;27.40;;;;;;4868338;29;20477;-82
2021/05/31 13:12:59;;;;;;;2.30;2.10;;;34.10;26.80;;;;;;4868021;29;20480;-83
2021/05/31 13:15:36;;;;;;;2.37;2.27;;;33.90;27.50;;;;;;4868287;29;20835;-83
2021/05/31 13:18:08;;;;;;;2.57;2.33;;;34.40;28.10;;;;;;4868433;29;20469;-81
2021/05/31 13:20:36;;;;;;;2.20;2.10;;;34.80;27.80;;;;;;4868444;29;21046;-83
2021/05/31 13:23:04;;;;;;;3.13;2.37;;;35.30;27.70;;;;;;4868382;29;20456;-83
2021/05/31 13:25:32;;;;;;;2.60;2.40;;;35.80;26.30;;;;;;4868618;29;20496;-85
2021/05/31 13:28:10;;;;;;;2.50;2.40;;;35.50;25.90;;;;;;4868124;29;20468;-84
2021/05/31 13:30:37;;;;;;;3.30;3.00;;;35.20;25.50;;;;;;4868563;29;20500;-84
2021/05/31 13:33:05;;;;;;;2.40;2.27;;;35.10;25.80;;;;;;4867680;29;20461;-84
2021/05/31 13:35:33;;;;;;;2.57;2.37;;;34.20;25.50;;;;;;4868848;29;20516;-85
2021/05/31 13:38:03;;;;;;;2.70;2.50;;;33.70;26.40;;;;;;4868704;29;20913;-82
2021/05/31 13:40:33;;;;;;;2.20;2.10;;;33.70;27.70;;;;;;4866171;29;20482;-83
2021/05/31 13:43:05;;;;;;;3.13;2.93;;;34.30;29.20;;;;;;4867682;29;20453;-82
2021/05/31 13:45:34;;;;;;;2.57;2.37;;;34.70;26.70;;;;;;4867904;29;20494;-84
2021/05/31 13:48:00;;;;;;;3.20;2.93;;;35.40;27.20;;;;;;4867734;29;20835;-85
2021/05/31 13:50:31;;;;;;;2.73;2.53;;;36.00;26.60;;;;;;4867863;29;20473;-84
2021/05/31 13:52:58;;;;;;;2.77;2.67;;;36.70;26.90;;;;;;4867832;29;20457;-83
2021/05/31 13:55:25;;;;;;;2.90;2.67;;;37.40;26.10;;;;;;4868105;29;20494;-84
2021/05/31 13:57:53;;;;;;;2.60;2.40;;;38.00;24.90;;;;;;4867765;29;20449;-84
2021/05/31 14:00:21;;;;;;;2.50;2.40;;;38.60;24.50;;;;;;4868261;29;20482;-84
2021/05/31 14:02:48;;;;;;;2.70;2.50;;;38.60;23.80;;;;;;4867638;29;20472;-83
2021/05/31 14:05:15;;;;;;;2.80;2.60;;;38.10;24.50;;;;;;4867618;29;20499;-84
2021/05/31 14:07:42;;;;;;;2.67;2.50;;;38.00;24.00;;;;;;4867152;29;20875;-83
2021/05/31 14:10:09;;;;;;;2.87;2.77;;;37.90;25.00;;;;;;4867947;29;20493;-84
2021/05/31 14:12:37;;;;;;;2.57;2.47;;;37.60;24.40;;;;;;4866921;29;20461;-83
2021/05/31 14:15:05;;;;;;;6.40;3.60;;;37.40;25.20;;;;;;4868549;29;20835;-83
2021/05/31 14:17:32;;;;;;;3.07;2.87;;;37.40;25.20;;;;;;4867270;29;20462;-83
2021/05/31 14:19:58;;;;;;;3.27;3.07;;;37.60;23.90;;;;;;4867720;29;20481;-85
2021/05/31 14:22:25;;;;;;;2.90;2.70;;;37.80;24.30;;;;;;4873662;29;20486;-82
2021/05/31 14:24:51;;;;;;;3.33;3.10;;;38.40;25.30;;;;;;4882407;29;20861;-80
2021/05/31 14:27:18;;;;;;;3.13;2.83;;;38.90;24.90;;;;;;4882046;29;20482;-82
2021/05/31 14:29:46;;;;;;;3.03;2.73;;;39.60;24.30;;;;;;4871779;29;20482;-83
2021/05/31 14:32:12;;;;;;;2.83;2.73;;;39.80;23.20;;;;;;4867267;29;20461;-82
2021/05/31 14:34:39;;;;;;;2.80;2.47;;;40.00;22.70;;;;;;4866688;29;20490;-83
2021/05/31 14:37:07;;;;;;;3.00;2.57;;;40.30;23.30;;;;;;4866567;29;20473;-84
2021/05/31 14:39:33;;;;;;;3.20;2.70;;;40.10;22.60;;;;;;4867098;29;20481;-84
2021/05/31 14:41:59;;;;;;;4.03;3.63;;;39.60;22.80;;;;;;4866954;29;20941;-84